createdAt,value
2023-04-16T00:00:52.517Z,97538.31
2023-04-16T00:05:22.738Z,97533.09
2023-04-16T00:09:40.492Z,97538.09
2023-04-16T00:13:58.028Z,97544.53
2023-04-16T00:18:15.846Z,97541.94
2023-04-16T00:22:33.384Z,97534.16
2023-04-16T00:26:51.408Z,97537.97
2023-04-16T00:31:08.854Z,97537.22
2023-04-16T00:35:27.397Z,97547.13
2023-04-16T00:39:44.891Z,97554.44
2023-04-16T00:44:02.590Z,97562.31
2023-04-16T00:48:21.252Z,97565.81
2023-04-16T00:52:39.097Z,97562.91
2023-04-16T00:56:58.680Z,97568.31
2023-04-16T01:01:16.483Z,97570.22
2023-04-16T01:05:34.255Z,97578.81
2023-04-16T01:09:51.799Z,97577.91
2023-04-16T01:14:09.468Z,97573.09
2023-04-16T01:18:27.170Z,97580.34
2023-04-16T01:22:44.844Z,97575.88
2023-04-16T01:27:02.392Z,97578.59
2023-04-16T01:31:20.094Z,97575.22
2023-04-16T01:35:38.275Z,97583.47
2023-04-16T01:39:56.215Z,97592.91
2023-04-16T01:44:13.858Z,97592.63
2023-04-16T01:48:31.673Z,97598.91
2023-04-16T01:52:49.399Z,97601.28
2023-04-16T01:57:07.068Z,97599.59
2023-04-16T02:01:24.852Z,97605.81
2023-04-16T02:05:42.629Z,97605.00
2023-04-16T02:10:00.207Z,97612.97
2023-04-16T02:14:18.132Z,97609.25
2023-04-16T02:18:35.629Z,97612.16
2023-04-16T02:22:53.284Z,97626.75
2023-04-16T02:27:12.299Z,97620.06
2023-04-16T02:31:30.806Z,97617.91
2023-04-16T02:35:48.958Z,97622.03
2023-04-16T02:40:07.549Z,97625.28
2023-04-16T02:44:26.048Z,97626.03
2023-04-16T02:48:43.527Z,97618.88
2023-04-16T02:53:01.288Z,97620.53
2023-04-16T02:57:18.916Z,97620.47
2023-04-16T03:01:36.457Z,97620.50
2023-04-16T03:05:54.392Z,97632.19
2023-04-16T03:10:12.510Z,97627.00
2023-04-16T03:14:31.528Z,97633.13
2023-04-16T03:18:49.673Z,97636.66
2023-04-16T03:23:07.264Z,97645.03
2023-04-16T03:27:24.939Z,97657.41
2023-04-16T03:31:42.638Z,97667.72
2023-04-16T03:36:00.651Z,97668.34
2023-04-16T03:40:18.581Z,97673.84
2023-04-16T03:44:36.358Z,97677.56
2023-04-16T03:48:54.069Z,97679.19
2023-04-16T03:53:11.564Z,97679.03
2023-04-16T03:57:29.393Z,97688.28
2023-04-16T04:01:47.091Z,97692.09
2023-04-16T04:06:09.176Z,97697.09
2023-04-16T04:10:26.852Z,97700.44
2023-04-16T04:14:44.513Z,97704.47
2023-04-16T04:19:02.132Z,97718.19
2023-04-16T04:23:19.836Z,97708.16
2023-04-16T04:27:37.365Z,97724.44
2023-04-16T04:31:55.734Z,97727.31
2023-04-16T04:36:13.348Z,97730.25
2023-04-16T04:40:31.107Z,97727.56
2023-04-16T04:44:49.028Z,97740.22
2023-04-16T04:49:06.980Z,97747.94
2023-04-16T04:53:24.681Z,97750.72
2023-04-16T04:57:42.880Z,97757.63
2023-04-16T05:02:00.980Z,97761.66
2023-04-16T05:06:18.875Z,97769.38
2023-04-16T05:10:36.640Z,97776.56
2023-04-16T05:14:54.248Z,97782.44
2023-04-16T05:19:12.019Z,97784.75
2023-04-16T05:23:30.227Z,97793.41
2023-04-16T05:27:47.713Z,97789.09
2023-04-16T05:32:05.668Z,97799.34
2023-04-16T05:36:23.164Z,97794.97
2023-04-16T05:40:40.911Z,97803.88
2023-04-16T05:44:58.414Z,97810.72
2023-04-16T05:49:19.027Z,97819.75
2023-04-16T05:53:36.723Z,97819.38
2023-04-16T05:57:54.565Z,97825.81
2023-04-16T06:02:12.397Z,97836.66
2023-04-16T06:06:30.123Z,97849.69
2023-04-16T06:10:47.856Z,97850.50
2023-04-16T06:15:06.691Z,97870.34
2023-04-16T06:19:24.196Z,97867.88
2023-04-16T06:23:41.970Z,97871.41
2023-04-16T06:27:59.557Z,97868.56
2023-04-16T06:32:17.849Z,97885.41
2023-04-16T06:36:37.727Z,97887.72
2023-04-16T06:40:55.567Z,97881.06
2023-04-16T06:45:13.720Z,97879.53
2023-04-16T06:49:31.459Z,97873.75
2023-04-16T06:53:49.732Z,97870.97
2023-04-16T06:58:07.450Z,97864.75
2023-04-16T07:02:25.384Z,97866.09
2023-04-16T07:06:43.242Z,97873.03
2023-04-16T07:11:01.269Z,97881.97
2023-04-16T07:15:19.008Z,97881.97
2023-04-16T07:19:37.412Z,97885.25
2023-04-16T07:23:55.188Z,97910.09
2023-04-16T07:28:13.184Z,97912.59
2023-04-16T07:32:31.095Z,97920.63
2023-04-16T07:36:49.125Z,97922.91
2023-04-16T07:41:06.906Z,97918.03
2023-04-16T07:45:24.945Z,97920.25
2023-04-16T07:49:42.779Z,97922.53
2023-04-16T07:54:00.289Z,97934.50
2023-04-16T07:58:17.916Z,97934.34
2023-04-16T08:02:35.728Z,97939.78
2023-04-16T08:06:54.697Z,97943.50
2023-04-16T08:11:12.291Z,97953.31
2023-04-16T08:15:30.138Z,97961.75
2023-04-16T08:19:47.787Z,97964.06
2023-04-16T08:24:05.877Z,97959.41
2023-04-16T08:28:23.421Z,97977.75
2023-04-16T08:32:41.274Z,97979.81
2023-04-16T08:36:58.730Z,97984.56
2023-04-16T08:41:16.678Z,97979.59
2023-04-16T08:45:35.684Z,97975.38
2023-04-16T08:49:58.464Z,97977.75
2023-04-16T08:54:43.594Z,97989.38
2023-04-16T08:59:05.581Z,98005.84
2023-04-16T09:03:23.359Z,98007.97
2023-04-16T09:07:41.925Z,97992.69
2023-04-16T09:12:00.318Z,98019.34
2023-04-16T09:16:18.752Z,98033.56
2023-04-16T09:20:36.527Z,98024.47
2023-04-16T09:24:54.160Z,98020.94
2023-04-16T09:29:11.994Z,98028.97
2023-04-16T09:33:29.803Z,98029.75
2023-04-16T09:37:58.172Z,98041.44
2023-04-16T09:42:16.003Z,98030.97
2023-04-16T09:46:35.475Z,98015.50
2023-04-16T09:50:53.183Z,97992.25
2023-04-16T09:55:13.734Z,98023.53
2023-04-16T09:59:34.404Z,98023.03
2023-04-16T10:03:56.013Z,98013.25
2023-04-16T10:08:14.876Z,98021.22
2023-04-16T10:12:35.802Z,98004.94
2023-04-16T10:16:54.280Z,98005.34
2023-04-16T10:21:13.055Z,98000.88
2023-04-16T10:25:32.504Z,98005.75
2023-04-16T10:29:50.911Z,97999.28
2023-04-16T10:34:10.400Z,98007.78
2023-04-16T10:38:28.753Z,98023.84
2023-04-16T10:42:58.671Z,98028.47
2023-04-16T10:47:16.302Z,98040.25
2023-04-16T10:51:36.578Z,98036.66
2023-04-16T10:56:13.086Z,98031.31
2023-04-16T11:00:30.975Z,98002.13
2023-04-16T11:04:50.031Z,98017.34
2023-04-16T11:09:26.501Z,98014.94
2023-04-16T11:13:48.889Z,98027.88
2023-04-16T11:18:07.473Z,98039.47
2023-04-16T11:22:25.391Z,98043.75
2023-04-16T11:26:43.034Z,98073.44
2023-04-16T11:31:09.402Z,98088.38
2023-04-16T11:35:27.562Z,98090.78
2023-04-16T11:39:52.951Z,98104.69
2023-04-16T11:44:28.344Z,98148.66
2023-04-16T11:48:48.328Z,98138.22
2023-04-16T11:53:06.790Z,98188.97
2023-04-16T11:57:33.235Z,98207.63
2023-04-16T12:01:56.449Z,98250.69
2023-04-16T12:06:14.303Z,98294.59
2023-04-16T12:10:37.944Z,98318.13
2023-04-16T12:14:57.852Z,98361.88
2023-04-16T12:19:15.825Z,98106.63
2023-04-16T12:23:34.607Z,98103.44
2023-04-16T12:27:56.101Z,98078.38
2023-04-16T12:32:23.701Z,98065.19
2023-04-16T12:36:43.095Z,98055.78
2023-04-16T12:41:02.662Z,98056.59
2023-04-16T12:45:20.341Z,98064.19
2023-04-16T12:49:38.112Z,98232.13
2023-04-16T12:53:56.046Z,98235.50
2023-04-16T12:58:13.686Z,98187.38
2023-04-16T13:02:32.600Z,98090.59
2023-04-16T13:06:51.566Z,98054.91
2023-04-16T13:11:09.239Z,98069.53
2023-04-16T13:15:27.017Z,98145.47
2023-04-16T13:19:44.741Z,98626.44
2023-04-16T13:24:02.611Z,98955.06
2023-04-16T13:28:20.155Z,98938.06
2023-04-16T13:32:37.986Z,99064.09
2023-04-16T13:36:55.569Z,99257.06
2023-04-16T13:41:13.437Z,99169.25
2023-04-16T13:45:31.077Z,99557.47
2023-04-16T13:49:49.586Z,99760.19
2023-04-16T13:54:07.091Z,99178.00
2023-04-16T13:58:25.052Z,99956.69
2023-04-16T14:02:43.484Z,99998.75
2023-04-16T14:07:01.440Z,100285.31
2023-04-16T14:11:19.117Z,98078.75
2023-04-16T14:15:36.679Z,98314.72
2023-04-16T14:19:54.399Z,98070.41
2023-04-16T14:24:11.927Z,98702.25
2023-04-16T14:28:29.639Z,98053.94
2023-04-16T14:32:47.267Z,98057.91
2023-04-16T14:37:06.045Z,98098.03
2023-04-16T14:41:23.669Z,97986.31
2023-04-16T14:45:42.072Z,98000.06
2023-04-16T14:50:00.040Z,98019.19
2023-04-16T14:54:17.700Z,98004.88
2023-04-16T14:58:38.622Z,98013.72
2023-04-16T15:02:57.086Z,98019.78
2023-04-16T15:07:14.859Z,98019.78
2023-04-16T15:11:32.489Z,98006.53
2023-04-16T15:15:50.242Z,98020.94
2023-04-16T15:20:09.516Z,98006.94
2023-04-16T15:24:27.053Z,98005.50
2023-04-16T15:28:44.744Z,98003.53
2023-04-16T15:33:02.393Z,98008.84
2023-04-16T15:37:20.174Z,98007.47
2023-04-16T15:41:50.229Z,98012.09
2023-04-16T15:46:17.450Z,98012.09
2023-04-16T15:50:35.407Z,98008.63
2023-04-16T15:54:53.217Z,98002.34
2023-04-16T15:59:10.913Z,98001.25
2023-04-16T16:03:29.044Z,98009.09
2023-04-16T16:07:47.018Z,98015.59
2023-04-16T16:12:04.762Z,98011.09
2023-04-16T16:16:22.379Z,97999.56
2023-04-16T16:20:40.934Z,97998.44
2023-04-16T16:24:58.698Z,97996.53
2023-04-16T16:29:16.531Z,98000.97
2023-04-16T16:33:34.397Z,98010.34
2023-04-16T16:37:57.626Z,98010.50
2023-04-16T16:42:18.989Z,98008.38
2023-04-16T16:46:37.197Z,98016.72
2023-04-16T16:50:54.999Z,98009.09
2023-04-16T16:55:12.884Z,98010.41
2023-04-16T16:59:30.452Z,98010.22
2023-04-16T17:03:48.171Z,98001.59
2023-04-16T17:08:06.792Z,98013.63
2023-04-16T17:12:25.412Z,98026.06
2023-04-16T17:16:43.243Z,98022.47
2023-04-16T17:21:00.745Z,98022.34
2023-04-16T17:25:18.513Z,98026.56
2023-04-16T17:29:36.344Z,98024.66
2023-04-16T17:33:53.986Z,98031.97
2023-04-16T17:38:11.991Z,98036.88
2023-04-16T17:42:29.724Z,98032.75
2023-04-16T17:46:47.597Z,98043.13
2023-04-16T17:51:17.648Z,98044.25
2023-04-16T17:55:36.078Z,98049.16
2023-04-16T17:59:53.761Z,98059.34
2023-04-16T18:04:12.036Z,98049.41
2023-04-16T18:08:30.132Z,98059.59
2023-04-16T18:12:48.178Z,98065.06
2023-04-16T18:17:06.603Z,98068.38
2023-04-16T18:21:24.739Z,98068.31
2023-04-16T18:25:42.300Z,98071.38
2023-04-16T18:30:00.135Z,98072.41
2023-04-16T18:34:17.793Z,98085.09
2023-04-16T18:38:36.989Z,98086.19
2023-04-16T18:42:59.169Z,98103.63
2023-04-16T18:47:17.123Z,98097.19
2023-04-16T18:51:34.763Z,98108.13
2023-04-16T18:55:55.744Z,98108.91
2023-04-16T19:00:14.017Z,98111.91
2023-04-16T19:04:32.017Z,98113.25
2023-04-16T19:08:49.681Z,98113.16
2023-04-16T19:13:07.462Z,98118.63
2023-04-16T19:17:25.050Z,98115.91
2023-04-16T19:21:42.770Z,98121.66
2023-04-16T19:26:01.732Z,98123.94
2023-04-16T19:30:19.534Z,98119.69
2023-04-16T19:34:37.159Z,98122.28
2023-04-16T19:38:54.862Z,98115.47
2023-04-16T19:43:13.114Z,98123.09
2023-04-16T19:47:30.612Z,98120.84
2023-04-16T19:51:48.350Z,98120.72
2023-04-16T19:56:06.099Z,98112.44
2023-04-16T20:00:23.734Z,98117.56
2023-04-16T20:04:41.496Z,98118.38
2023-04-16T20:08:59.085Z,98119.41
2023-04-16T20:13:18.613Z,98120.88
2023-04-16T20:17:36.387Z,98119.31
2023-04-16T20:21:54.233Z,98122.13
2023-04-16T20:26:18.993Z,98117.16
2023-04-16T20:30:39.633Z,98107.50
2023-04-16T20:34:57.334Z,98121.59
2023-04-16T20:39:14.961Z,98119.94
2023-04-16T20:43:38.753Z,98121.44
2023-04-16T20:47:56.541Z,98117.13
2023-04-16T20:52:14.802Z,98112.25
2023-04-16T20:56:32.344Z,98104.97
2023-04-16T21:00:51.756Z,98114.63
2023-04-16T21:05:14.310Z,98113.84
2023-04-16T21:09:32.176Z,98111.16
2023-04-16T21:13:49.730Z,98107.84
2023-04-16T21:18:08.046Z,98101.25
2023-04-16T21:22:25.622Z,98105.44
2023-04-16T21:26:43.325Z,98095.47
2023-04-16T21:31:00.924Z,98102.69
2023-04-16T21:35:18.753Z,98094.25
2023-04-16T21:39:36.473Z,98095.97
2023-04-16T21:43:54.827Z,98102.22
2023-04-16T21:48:12.538Z,98102.22
2023-04-16T21:52:30.790Z,98098.84
2023-04-16T21:56:48.757Z,98098.25
2023-04-16T22:01:07.275Z,98096.69
2023-04-16T22:05:27.117Z,98099.22
2023-04-16T22:09:44.657Z,98101.88
2023-04-16T22:14:03.366Z,98099.91
2023-04-16T22:18:21.045Z,98094.03
2023-04-16T22:22:39.730Z,98093.56
2023-04-16T22:26:57.276Z,98084.19
2023-04-16T22:31:14.973Z,98093.63
2023-04-16T22:35:33.241Z,98101.75
2023-04-16T22:39:51.262Z,98100.22
2023-04-16T22:44:08.928Z,98095.41
2023-04-16T22:48:26.616Z,98095.41
2023-04-16T22:52:44.199Z,98101.91
2023-04-16T22:57:02.455Z,98103.81
2023-04-16T23:01:19.988Z,98102.22
2023-04-16T23:05:37.941Z,98095.66
2023-04-16T23:09:55.733Z,98099.50
2023-04-16T23:14:16.218Z,98094.44
2023-04-16T23:18:34.437Z,98086.41
2023-04-16T23:22:53.158Z,98089.56
2023-04-16T23:27:10.919Z,98084.66
2023-04-16T23:31:28.633Z,98092.59
2023-04-16T23:35:47.769Z,98085.78
2023-04-16T23:40:09.061Z,98085.13
2023-04-16T23:44:28.381Z,98089.22
2023-04-16T23:48:45.956Z,98080.03
2023-04-16T23:53:03.656Z,98088.63
2023-04-16T23:57:21.223Z,98070.25
